sensor_id;sensor_type;location;lat;lon;timestamp;temperature;humidity
15341;DHT22;7770;52.158;5.372;2022-07-17T00:00:05;12.40;99.90
15341;DHT22;7770;52.158;5.372;2022-07-17T00:02:52;12.50;99.90
15341;DHT22;7770;52.158;5.372;2022-07-17T00:05:39;12.50;99.90
15341;DHT22;7770;52.158;5.372;2022-07-17T00:08:25;12.40;99.90
15341;DHT22;7770;52.158;5.372;2022-07-17T00:11:11;12.40;99.90
15341;DHT22;7770;52.158;5.372;2022-07-17T00:13:57;12.40;99.90
15341;DHT22;7770;52.158;5.372;2022-07-17T00:16:43;12.30;99.90
15341;DHT22;7770;52.158;5.372;2022-07-17T00:19:29;12.30;99.90
15341;DHT22;7770;52.158;5.372;2022-07-17T00:22:15;12.30;99.90
15341;DHT22;7770;52.158;5.372;2022-07-17T00:25:01;12.30;99.90
15341;DHT22;7770;52.158;5.372;2022-07-17T00:27:47;12.30;99.90
15341;DHT22;7770;52.158;5.372;2022-07-17T00:30:33;12.30;99.90
15341;DHT22;7770;52.158;5.372;2022-07-17T00:33:19;12.30;99.90
15341;DHT22;7770;52.158;5.372;2022-07-17T00:36:05;12.20;99.90
15341;DHT22;7770;52.158;5.372;2022-07-17T00:38:51;12.20;99.90
15341;DHT22;7770;52.158;5.372;2022-07-17T00:41:37;12.20;99.90
15341;DHT22;7770;52.158;5.372;2022-07-17T00:44:26;12.20;99.90
15341;DHT22;7770;52.158;5.372;2022-07-17T00:47:14;12.20;99.90
15341;DHT22;7770;52.158;5.372;2022-07-17T00:50:04;12.20;99.90
15341;DHT22;7770;52.158;5.372;2022-07-17T00:52:51;12.10;99.90
15341;DHT22;7770;52.158;5.372;2022-07-17T00:55:39;12.10;99.90
15341;DHT22;7770;52.158;5.372;2022-07-17T00:58:26;12.10;99.90
15341;DHT22;7770;52.158;5.372;2022-07-17T01:01:12;12.10;99.90
15341;DHT22;7770;52.158;5.372;2022-07-17T01:03:59;12.00;99.90
15341;DHT22;7770;52.158;5.372;2022-07-17T01:06:45;12.00;99.90
15341;DHT22;7770;52.158;5.372;2022-07-17T01:09:31;12.00;99.90
15341;DHT22;7770;52.158;5.372;2022-07-17T01:12:18;12.00;99.90
15341;DHT22;7770;52.158;5.372;2022-07-17T01:15:05;12.10;99.90
15341;DHT22;7770;52.158;5.372;2022-07-17T01:17:51;12.20;99.90
15341;DHT22;7770;52.158;5.372;2022-07-17T01:20:40;12.10;99.90
15341;DHT22;7770;52.158;5.372;2022-07-17T01:23:27;12.10;99.90
15341;DHT22;7770;52.158;5.372;2022-07-17T01:26:13;12.10;99.90
15341;DHT22;7770;52.158;5.372;2022-07-17T01:28:59;12.10;99.90
15341;DHT22;7770;52.158;5.372;2022-07-17T01:31:45;12.00;99.90
15341;DHT22;7770;52.158;5.372;2022-07-17T01:34:31;12.00;99.90
15341;DHT22;7770;52.158;5.372;2022-07-17T01:37:17;12.00;99.90
15341;DHT22;7770;52.158;5.372;2022-07-17T01:40:04;11.90;99.90
15341;DHT22;7770;52.158;5.372;2022-07-17T01:42:51;11.90;99.90
15341;DHT22;7770;52.158;5.372;2022-07-17T01:45:37;11.80;99.90
15341;DHT22;7770;52.158;5.372;2022-07-17T01:48:28;11.90;99.90
15341;DHT22;7770;52.158;5.372;2022-07-17T01:51:15;12.30;99.90
15341;DHT22;7770;52.158;5.372;2022-07-17T01:54:01;12.40;99.90
15341;DHT22;7770;52.158;5.372;2022-07-17T01:56:47;12.40;99.90
15341;DHT22;7770;52.158;5.372;2022-07-17T01:59:33;12.40;99.90
15341;DHT22;7770;52.158;5.372;2022-07-17T02:02:19;12.50;99.90
15341;DHT22;7770;52.158;5.372;2022-07-17T02:05:06;12.50;99.90
15341;DHT22;7770;52.158;5.372;2022-07-17T02:07:53;12.50;99.90
15341;DHT22;7770;52.158;5.372;2022-07-17T02:10:39;12.40;99.90
15341;DHT22;7770;52.158;5.372;2022-07-17T02:13:25;12.40;99.90
15341;DHT22;7770;52.158;5.372;2022-07-17T02:16:11;12.20;99.90
15341;DHT22;7770;52.158;5.372;2022-07-17T02:18:57;12.20;99.90
15341;DHT22;7770;52.158;5.372;2022-07-17T02:21:43;12.30;99.90
15341;DHT22;7770;52.158;5.372;2022-07-17T02:24:29;12.30;99.90
15341;DHT22;7770;52.158;5.372;2022-07-17T02:27:15;12.20;99.90
15341;DHT22;7770;52.158;5.372;2022-07-17T02:30:05;12.20;99.90
15341;DHT22;7770;52.158;5.372;2022-07-17T02:32:56;12.20;99.90
15341;DHT22;7770;52.158;5.372;2022-07-17T02:35:42;12.20;99.90
15341;DHT22;7770;52.158;5.372;2022-07-17T02:38:28;12.20;99.90
15341;DHT22;7770;52.158;5.372;2022-07-17T02:41:14;12.20;99.90
15341;DHT22;7770;52.158;5.372;2022-07-17T02:44:01;12.10;99.90
15341;DHT22;7770;52.158;5.372;2022-07-17T02:46:47;12.10;99.90
15341;DHT22;7770;52.158;5.372;2022-07-17T02:49:33;12.00;99.90
15341;DHT22;7770;52.158;5.372;2022-07-17T02:52:20;12.00;99.90
15341;DHT22;7770;52.158;5.372;2022-07-17T02:55:07;11.90;99.90
15341;DHT22;7770;52.158;5.372;2022-07-17T02:57:53;11.90;99.90
15341;DHT22;7770;52.158;5.372;2022-07-17T03:00:39;11.90;99.90
15341;DHT22;7770;52.158;5.372;2022-07-17T03:03:25;12.10;99.90
15341;DHT22;7770;52.158;5.372;2022-07-17T03:06:12;12.20;99.90
15341;DHT22;7770;52.158;5.372;2022-07-17T03:08:58;12.30;99.90
15341;DHT22;7770;52.158;5.372;2022-07-17T03:11:44;12.40;99.90
15341;DHT22;7770;52.158;5.372;2022-07-17T03:14:30;12.30;99.90
15341;DHT22;7770;52.158;5.372;2022-07-17T03:17:16;12.30;99.90
15341;DHT22;7770;52.158;5.372;2022-07-17T03:20:02;12.20;99.90
15341;DHT22;7770;52.158;5.372;2022-07-17T03:22:49;12.10;99.90
15341;DHT22;7770;52.158;5.372;2022-07-17T03:25:35;12.20;99.90
15341;DHT22;7770;52.158;5.372;2022-07-17T03:28:21;12.20;99.90
15341;DHT22;7770;52.158;5.372;2022-07-17T03:31:07;12.10;99.90
15341;DHT22;7770;52.158;5.372;2022-07-17T03:33:52;12.10;99.90
15341;DHT22;7770;52.158;5.372;2022-07-17T03:36:39;12.10;99.90
15341;DHT22;7770;52.158;5.372;2022-07-17T03:39:25;12.20;99.90
15341;DHT22;7770;52.158;5.372;2022-07-17T03:42:11;12.20;99.90
15341;DHT22;7770;52.158;5.372;2022-07-17T03:44:57;12.20;99.90
15341;DHT22;7770;52.158;5.372;2022-07-17T03:47:43;12.20;99.90
15341;DHT22;7770;52.158;5.372;2022-07-17T03:50:29;12.20;99.90
15341;DHT22;7770;52.158;5.372;2022-07-17T03:53:15;12.20;99.90
15341;DHT22;7770;52.158;5.372;2022-07-17T03:56:01;12.20;99.90
15341;DHT22;7770;52.158;5.372;2022-07-17T03:58:47;12.20;99.90
15341;DHT22;7770;52.158;5.372;2022-07-17T04:01:33;12.20;99.90
15341;DHT22;7770;52.158;5.372;2022-07-17T04:04:19;12.20;99.90
15341;DHT22;7770;52.158;5.372;2022-07-17T04:07:05;12.30;99.90
15341;DHT22;7770;52.158;5.372;2022-07-17T04:09:52;12.30;99.90
15341;DHT22;7770;52.158;5.372;2022-07-17T04:12:41;12.40;99.90
15341;DHT22;7770;52.158;5.372;2022-07-17T04:15:27;12.50;99.90
15341;DHT22;7770;52.158;5.372;2022-07-17T04:18:34;12.50;99.90
15341;DHT22;7770;52.158;5.372;2022-07-17T04:21:21;12.40;99.90
15341;DHT22;7770;52.158;5.372;2022-07-17T04:24:07;12.40;99.90
15341;DHT22;7770;52.158;5.372;2022-07-17T04:26:53;12.40;99.90
15341;DHT22;7770;52.158;5.372;2022-07-17T04:29:39;12.40;99.90
15341;DHT22;7770;52.158;5.372;2022-07-17T04:32:25;12.40;99.90
15341;DHT22;7770;52.158;5.372;2022-07-17T04:35:11;12.50;99.90
15341;DHT22;7770;52.158;5.372;2022-07-17T04:37:57;12.60;99.90
15341;DHT22;7770;52.158;5.372;2022-07-17T04:40:43;12.60;99.90
15341;DHT22;7770;52.158;5.372;2022-07-17T04:43:29;12.60;99.90
15341;DHT22;7770;52.158;5.372;2022-07-17T04:46:15;12.60;99.90
15341;DHT22;7770;52.158;5.372;2022-07-17T04:49:01;12.60;99.90
15341;DHT22;7770;52.158;5.372;2022-07-17T04:51:47;12.70;99.90
15341;DHT22;7770;52.158;5.372;2022-07-17T04:54:33;12.70;99.90
15341;DHT22;7770;52.158;5.372;2022-07-17T04:57:19;12.70;99.90
15341;DHT22;7770;52.158;5.372;2022-07-17T05:00:07;12.80;99.90
15341;DHT22;7770;52.158;5.372;2022-07-17T05:02:55;12.90;99.90
15341;DHT22;7770;52.158;5.372;2022-07-17T05:05:41;13.00;99.90
15341;DHT22;7770;52.158;5.372;2022-07-17T05:08:27;13.10;99.90
15341;DHT22;7770;52.158;5.372;2022-07-17T05:11:13;13.30;99.90
15341;DHT22;7770;52.158;5.372;2022-07-17T05:13:59;13.60;99.90
15341;DHT22;7770;52.158;5.372;2022-07-17T05:16:45;13.60;99.90
15341;DHT22;7770;52.158;5.372;2022-07-17T05:19:31;13.80;99.90
15341;DHT22;7770;52.158;5.372;2022-07-17T05:22:17;13.90;99.90
15341;DHT22;7770;52.158;5.372;2022-07-17T05:25:03;14.00;99.90
15341;DHT22;7770;52.158;5.372;2022-07-17T05:27:50;14.20;99.90
15341;DHT22;7770;52.158;5.372;2022-07-17T05:30:36;15.00;99.90
15341;DHT22;7770;52.158;5.372;2022-07-17T05:33:22;16.10;99.90
15341;DHT22;7770;52.158;5.372;2022-07-17T05:36:08;17.10;99.90
15341;DHT22;7770;52.158;5.372;2022-07-17T05:38:54;18.40;99.90
15341;DHT22;7770;52.158;5.372;2022-07-17T05:41:40;18.10;99.90
15341;DHT22;7770;52.158;5.372;2022-07-17T05:44:26;16.90;99.90
15341;DHT22;7770;52.158;5.372;2022-07-17T05:47:12;16.40;99.90
15341;DHT22;7770;52.158;5.372;2022-07-17T05:49:58;16.70;99.90
15341;DHT22;7770;52.158;5.372;2022-07-17T05:52:44;17.00;99.90
15341;DHT22;7770;52.158;5.372;2022-07-17T05:55:30;18.00;99.90
15341;DHT22;7770;52.158;5.372;2022-07-17T05:58:17;19.20;99.90
15341;DHT22;7770;52.158;5.372;2022-07-17T06:01:03;20.60;99.90
15341;DHT22;7770;52.158;5.372;2022-07-17T06:03:48;20.50;99.90
15341;DHT22;7770;52.158;5.372;2022-07-17T06:06:35;20.70;99.90
15341;DHT22;7770;52.158;5.372;2022-07-17T06:09:21;20.40;99.90
15341;DHT22;7770;52.158;5.372;2022-07-17T06:12:07;19.20;99.90
15341;DHT22;7770;52.158;5.372;2022-07-17T06:14:53;18.40;99.90
15341;DHT22;7770;52.158;5.372;2022-07-17T06:17:39;18.00;99.90
15341;DHT22;7770;52.158;5.372;2022-07-17T06:20:25;17.30;99.90
15341;DHT22;7770;52.158;5.372;2022-07-17T06:23:11;17.20;99.90
15341;DHT22;7770;52.158;5.372;2022-07-17T06:25:57;17.10;99.90
15341;DHT22;7770;52.158;5.372;2022-07-17T06:28:43;17.00;99.90
15341;DHT22;7770;52.158;5.372;2022-07-17T06:31:29;17.60;99.90
15341;DHT22;7770;52.158;5.372;2022-07-17T06:34:16;17.70;99.90
15341;DHT22;7770;52.158;5.372;2022-07-17T06:37:01;17.40;99.90
15341;DHT22;7770;52.158;5.372;2022-07-17T06:39:47;17.40;99.90
15341;DHT22;7770;52.158;5.372;2022-07-17T06:42:33;17.40;99.90
15341;DHT22;7770;52.158;5.372;2022-07-17T06:45:20;17.60;99.90
15341;DHT22;7770;52.158;5.372;2022-07-17T06:48:06;18.00;99.90
15341;DHT22;7770;52.158;5.372;2022-07-17T06:50:52;18.40;99.90
15341;DHT22;7770;52.158;5.372;2022-07-17T06:53:38;19.10;99.90
15341;DHT22;7770;52.158;5.372;2022-07-17T06:56:24;19.60;99.90
15341;DHT22;7770;52.158;5.372;2022-07-17T06:59:10;19.60;99.90
15341;DHT22;7770;52.158;5.372;2022-07-17T07:01:56;20.00;99.90
15341;DHT22;7770;52.158;5.372;2022-07-17T07:04:42;20.40;99.90
15341;DHT22;7770;52.158;5.372;2022-07-17T07:07:29;19.90;99.90
15341;DHT22;7770;52.158;5.372;2022-07-17T07:10:15;19.80;99.90
15341;DHT22;7770;52.158;5.372;2022-07-17T07:13:02;19.60;99.90
15341;DHT22;7770;52.158;5.372;2022-07-17T07:15:48;19.40;99.90
15341;DHT22;7770;52.158;5.372;2022-07-17T07:18:34;19.20;99.90
15341;DHT22;7770;52.158;5.372;2022-07-17T07:21:20;19.20;99.90
15341;DHT22;7770;52.158;5.372;2022-07-17T07:24:06;19.60;99.90
15341;DHT22;7770;52.158;5.372;2022-07-17T07:26:52;21.50;99.10
15341;DHT22;7770;52.158;5.372;2022-07-17T07:29:38;22.20;97.90
15341;DHT22;7770;52.158;5.372;2022-07-17T07:32:24;21.10;98.70
15341;DHT22;7770;52.158;5.372;2022-07-17T07:35:10;21.60;99.00
15341;DHT22;7770;52.158;5.372;2022-07-17T07:37:57;22.80;97.60
15341;DHT22;7770;52.158;5.372;2022-07-17T07:40:43;24.50;96.00
15341;DHT22;7770;52.158;5.372;2022-07-17T07:43:29;28.10;93.30
15341;DHT22;7770;52.158;5.372;2022-07-17T07:46:15;29.70;91.50
15341;DHT22;7770;52.158;5.372;2022-07-17T07:49:01;32.70;89.60
15341;DHT22;7770;52.158;5.372;2022-07-17T07:51:47;35.40;85.70
15341;DHT22;7770;52.158;5.372;2022-07-17T07:54:33;36.70;82.20
15341;DHT22;7770;52.158;5.372;2022-07-17T07:57:19;36.90;81.20
15341;DHT22;7770;52.158;5.372;2022-07-17T08:00:08;37.90;79.80
15341;DHT22;7770;52.158;5.372;2022-07-17T08:02:55;35.90;79.80
15341;DHT22;7770;52.158;5.372;2022-07-17T08:05:41;36.10;81.20
15341;DHT22;7770;52.158;5.372;2022-07-17T08:08:27;37.00;80.20
15341;DHT22;7770;52.158;5.372;2022-07-17T08:11:13;38.90;78.00
15341;DHT22;7770;52.158;5.372;2022-07-17T08:14:00;38.80;77.40
15341;DHT22;7770;52.158;5.372;2022-07-17T08:16:46;37.60;77.50
15341;DHT22;7770;52.158;5.372;2022-07-17T08:19:32;39.30;77.20
15341;DHT22;7770;52.158;5.372;2022-07-17T08:22:18;40.20;75.70
15341;DHT22;7770;52.158;5.372;2022-07-17T08:25:05;40.90;75.10
15341;DHT22;7770;52.158;5.372;2022-07-17T08:27:51;40.60;73.80
15341;DHT22;7770;52.158;5.372;2022-07-17T08:30:37;40.70;74.40
15341;DHT22;7770;52.158;5.372;2022-07-17T08:33:23;40.60;74.70
15341;DHT22;7770;52.158;5.372;2022-07-17T08:36:09;40.10;74.40
15341;DHT22;7770;52.158;5.372;2022-07-17T08:38:55;40.30;74.50
15341;DHT22;7770;52.158;5.372;2022-07-17T08:41:41;41.80;73.60
15341;DHT22;7770;52.158;5.372;2022-07-17T08:44:27;43.20;72.70
15341;DHT22;7770;52.158;5.372;2022-07-17T08:47:15;43.70;71.20
15341;DHT22;7770;52.158;5.372;2022-07-17T08:50:02;42.40;71.20
15341;DHT22;7770;52.158;5.372;2022-07-17T08:52:49;43.30;71.50
15341;DHT22;7770;52.158;5.372;2022-07-17T08:55:35;43.90;69.70
15341;DHT22;7770;52.158;5.372;2022-07-17T08:58:21;44.60;69.30
15341;DHT22;7770;52.158;5.372;2022-07-17T09:01:07;42.80;70.10
15341;DHT22;7770;52.158;5.372;2022-07-17T09:04:02;41.30;70.10
15341;DHT22;7770;52.158;5.372;2022-07-17T09:07:03;42.90;70.00
15341;DHT22;7770;52.158;5.372;2022-07-17T09:09:51;43.70;70.30
15341;DHT22;7770;52.158;5.372;2022-07-17T09:12:38;43.70;69.60
15341;DHT22;7770;52.158;5.372;2022-07-17T09:15:24;43.40;69.40
15341;DHT22;7770;52.158;5.372;2022-07-17T09:18:10;42.70;68.00
15341;DHT22;7770;52.158;5.372;2022-07-17T09:20:57;43.00;69.80
15341;DHT22;7770;52.158;5.372;2022-07-17T09:23:44;41.30;68.90
15341;DHT22;7770;52.158;5.372;2022-07-17T09:26:30;42.50;68.00
15341;DHT22;7770;52.158;5.372;2022-07-17T09:29:19;41.30;70.40
15341;DHT22;7770;52.158;5.372;2022-07-17T09:32:05;38.50;71.00
15341;DHT22;7770;52.158;5.372;2022-07-17T09:34:52;38.70;72.90
15341;DHT22;7770;52.158;5.372;2022-07-17T09:37:40;39.50;73.50
15341;DHT22;7770;52.158;5.372;2022-07-17T09:40:26;42.20;71.50
15341;DHT22;7770;52.158;5.372;2022-07-17T09:46:36;44.10;70.00
15341;DHT22;7770;52.158;5.372;2022-07-17T09:49:27;44.80;68.20
15341;DHT22;7770;52.158;5.372;2022-07-17T09:52:14;43.90;69.30
15341;DHT22;7770;52.158;5.372;2022-07-17T09:55:02;43.70;69.80
15341;DHT22;7770;52.158;5.372;2022-07-17T09:57:49;41.20;69.10
15341;DHT22;7770;52.158;5.372;2022-07-17T10:00:39;42.30;70.40
15341;DHT22;7770;52.158;5.372;2022-07-17T10:03:25;40.80;69.60
15341;DHT22;7770;52.158;5.372;2022-07-17T10:06:12;39.90;70.70
15341;DHT22;7770;52.158;5.372;2022-07-17T10:08:58;37.70;73.00
15341;DHT22;7770;52.158;5.372;2022-07-17T10:11:45;33.20;76.60
15341;DHT22;7770;52.158;5.372;2022-07-17T10:14:32;36.60;76.00
15341;DHT22;7770;52.158;5.372;2022-07-17T10:17:21;39.50;73.00
15341;DHT22;7770;52.158;5.372;2022-07-17T10:20:09;40.90;72.60
15341;DHT22;7770;52.158;5.372;2022-07-17T10:22:56;38.00;73.50
15341;DHT22;7770;52.158;5.372;2022-07-17T10:25:42;39.10;73.30
15341;DHT22;7770;52.158;5.372;2022-07-17T10:28:39;41.00;71.70
15341;DHT22;7770;52.158;5.372;2022-07-17T10:31:28;40.60;70.80
15341;DHT22;7770;52.158;5.372;2022-07-17T10:34:15;37.80;73.20
15341;DHT22;7770;52.158;5.372;2022-07-17T10:37:01;39.60;72.20
15341;DHT22;7770;52.158;5.372;2022-07-17T10:40:05;40.40;72.60
15341;DHT22;7770;52.158;5.372;2022-07-17T10:43:01;41.80;70.80
15341;DHT22;7770;52.158;5.372;2022-07-17T10:45:49;39.10;69.90
15341;DHT22;7770;52.158;5.372;2022-07-17T10:48:35;37.90;73.20
15341;DHT22;7770;52.158;5.372;2022-07-17T10:51:24;40.50;73.20
15341;DHT22;7770;52.158;5.372;2022-07-17T10:54:12;40.20;70.60
15341;DHT22;7770;52.158;5.372;2022-07-17T10:57:01;38.10;73.50
15341;DHT22;7770;52.158;5.372;2022-07-17T10:59:47;36.70;74.30
15341;DHT22;7770;52.158;5.372;2022-07-17T11:02:33;34.60;74.70
15341;DHT22;7770;52.158;5.372;2022-07-17T11:05:19;34.30;75.80
15341;DHT22;7770;52.158;5.372;2022-07-17T11:08:06;36.10;75.40
15341;DHT22;7770;52.158;5.372;2022-07-17T11:10:54;36.70;75.90
15341;DHT22;7770;52.158;5.372;2022-07-17T11:13:40;38.70;75.00
15341;DHT22;7770;52.158;5.372;2022-07-17T11:16:28;41.10;72.90
15341;DHT22;7770;52.158;5.372;2022-07-17T11:19:22;42.30;71.70
15341;DHT22;7770;52.158;5.372;2022-07-17T11:22:11;41.70;71.50
15341;DHT22;7770;52.158;5.372;2022-07-17T11:24:58;41.20;71.40
15341;DHT22;7770;52.158;5.372;2022-07-17T11:27:44;40.70;71.80
15341;DHT22;7770;52.158;5.372;2022-07-17T11:30:30;40.70;72.60
15341;DHT22;7770;52.158;5.372;2022-07-17T11:33:16;41.20;71.20
15341;DHT22;7770;52.158;5.372;2022-07-17T11:36:02;42.90;70.80
15341;DHT22;7770;52.158;5.372;2022-07-17T11:38:48;43.20;69.70
15341;DHT22;7770;52.158;5.372;2022-07-17T11:41:45;42.80;69.80
15341;DHT22;7770;52.158;5.372;2022-07-17T11:44:32;43.00;69.90
15341;DHT22;7770;52.158;5.372;2022-07-17T11:47:28;43.80;69.10
15341;DHT22;7770;52.158;5.372;2022-07-17T11:50:14;43.20;67.90
15341;DHT22;7770;52.158;5.372;2022-07-17T11:53:02;43.20;69.00
15341;DHT22;7770;52.158;5.372;2022-07-17T11:55:49;42.60;68.40
15341;DHT22;7770;52.158;5.372;2022-07-17T11:58:45;40.80;70.30
15341;DHT22;7770;52.158;5.372;2022-07-17T12:01:43;39.60;70.40
15341;DHT22;7770;52.158;5.372;2022-07-17T12:04:30;39.20;71.10
15341;DHT22;7770;52.158;5.372;2022-07-17T12:07:17;39.50;72.50
15341;DHT22;7770;52.158;5.372;2022-07-17T12:10:12;38.70;73.20
15341;DHT22;7770;52.158;5.372;2022-07-17T12:13:05;39.10;72.10
15341;DHT22;7770;52.158;5.372;2022-07-17T12:15:52;38.40;71.80
15341;DHT22;7770;52.158;5.372;2022-07-17T12:18:40;38.50;72.60
15341;DHT22;7770;52.158;5.372;2022-07-17T12:21:27;37.40;72.60
15341;DHT22;7770;52.158;5.372;2022-07-17T12:24:20;36.30;73.90
15341;DHT22;7770;52.158;5.372;2022-07-17T12:27:15;34.60;75.90
15341;DHT22;7770;52.158;5.372;2022-07-17T12:30:02;33.80;76.50
15341;DHT22;7770;52.158;5.372;2022-07-17T12:32:48;33.10;78.40
15341;DHT22;7770;52.158;5.372;2022-07-17T12:35:34;32.30;77.90
15341;DHT22;7770;52.158;5.372;2022-07-17T12:38:20;32.00;78.50
15341;DHT22;7770;52.158;5.372;2022-07-17T12:41:06;31.70;78.70
15341;DHT22;7770;52.158;5.372;2022-07-17T12:43:52;31.60;78.70
15341;DHT22;7770;52.158;5.372;2022-07-17T12:46:38;31.60;78.80
15341;DHT22;7770;52.158;5.372;2022-07-17T12:49:24;31.50;79.20
15341;DHT22;7770;52.158;5.372;2022-07-17T12:52:11;31.30;79.20
15341;DHT22;7770;52.158;5.372;2022-07-17T12:54:59;30.90;79.90
15341;DHT22;7770;52.158;5.372;2022-07-17T12:57:45;30.90;79.80
15341;DHT22;7770;52.158;5.372;2022-07-17T13:00:31;31.00;78.80
15341;DHT22;7770;52.158;5.372;2022-07-17T13:03:17;30.90;80.80
15341;DHT22;7770;52.158;5.372;2022-07-17T13:06:03;29.90;79.00
15341;DHT22;7770;52.158;5.372;2022-07-17T13:08:49;29.30;80.90
15341;DHT22;7770;52.158;5.372;2022-07-17T13:11:35;29.40;80.60
15341;DHT22;7770;52.158;5.372;2022-07-17T13:14:22;29.60;82.00
15341;DHT22;7770;52.158;5.372;2022-07-17T13:17:08;29.80;80.90
15341;DHT22;7770;52.158;5.372;2022-07-17T13:19:54;30.00;80.70
15341;DHT22;7770;52.158;5.372;2022-07-17T13:22:40;30.00;79.40
15341;DHT22;7770;52.158;5.372;2022-07-17T13:25:26;29.70;80.30
15341;DHT22;7770;52.158;5.372;2022-07-17T13:28:12;29.60;79.70
15341;DHT22;7770;52.158;5.372;2022-07-17T13:30:58;29.50;80.40
15341;DHT22;7770;52.158;5.372;2022-07-17T13:33:45;29.50;78.70
15341;DHT22;7770;52.158;5.372;2022-07-17T13:36:31;29.10;79.80
15341;DHT22;7770;52.158;5.372;2022-07-17T13:39:17;28.80;79.60
15341;DHT22;7770;52.158;5.372;2022-07-17T13:42:03;28.00;82.80
15341;DHT22;7770;52.158;5.372;2022-07-17T13:44:49;28.30;81.90
15341;DHT22;7770;52.158;5.372;2022-07-17T13:47:35;28.30;82.10
15341;DHT22;7770;52.158;5.372;2022-07-17T13:50:22;26.80;83.20
15341;DHT22;7770;52.158;5.372;2022-07-17T13:53:08;26.90;84.60
15341;DHT22;7770;52.158;5.372;2022-07-17T13:55:56;27.40;83.80
15341;DHT22;7770;52.158;5.372;2022-07-17T13:58:42;27.50;84.00
15341;DHT22;7770;52.158;5.372;2022-07-17T14:01:30;27.10;82.80
15341;DHT22;7770;52.158;5.372;2022-07-17T14:04:16;27.30;83.40
15341;DHT22;7770;52.158;5.372;2022-07-17T14:07:02;26.90;84.00
15341;DHT22;7770;52.158;5.372;2022-07-17T14:09:48;26.70;83.80
15341;DHT22;7770;52.158;5.372;2022-07-17T14:12:34;26.60;84.20
15341;DHT22;7770;52.158;5.372;2022-07-17T14:15:20;26.60;85.10
15341;DHT22;7770;52.158;5.372;2022-07-17T14:18:06;26.80;83.30
15341;DHT22;7770;52.158;5.372;2022-07-17T14:20:52;27.10;84.00
15341;DHT22;7770;52.158;5.372;2022-07-17T14:23:38;26.90;84.70
15341;DHT22;7770;52.158;5.372;2022-07-17T14:26:24;26.20;86.50
15341;DHT22;7770;52.158;5.372;2022-07-17T14:29:10;26.00;86.90
15341;DHT22;7770;52.158;5.372;2022-07-17T14:31:56;25.70;87.10
15341;DHT22;7770;52.158;5.372;2022-07-17T14:34:42;26.10;87.20
15341;DHT22;7770;52.158;5.372;2022-07-17T14:37:29;26.10;86.60
15341;DHT22;7770;52.158;5.372;2022-07-17T14:40:15;26.50;85.90
15341;DHT22;7770;52.158;5.372;2022-07-17T14:43:01;26.50;85.20
15341;DHT22;7770;52.158;5.372;2022-07-17T14:45:47;26.30;84.20
15341;DHT22;7770;52.158;5.372;2022-07-17T14:48:33;26.20;84.80
15341;DHT22;7770;52.158;5.372;2022-07-17T14:51:19;26.60;84.90
15341;DHT22;7770;52.158;5.372;2022-07-17T14:54:05;26.10;84.80
15341;DHT22;7770;52.158;5.372;2022-07-17T14:56:51;26.20;85.20
15341;DHT22;7770;52.158;5.372;2022-07-17T14:59:37;25.90;85.20
15341;DHT22;7770;52.158;5.372;2022-07-17T15:02:23;26.10;85.30
15341;DHT22;7770;52.158;5.372;2022-07-17T15:05:09;26.10;84.60
15341;DHT22;7770;52.158;5.372;2022-07-17T15:07:55;26.40;85.20
15341;DHT22;7770;52.158;5.372;2022-07-17T15:10:41;26.80;85.30
15341;DHT22;7770;52.158;5.372;2022-07-17T15:13:27;27.10;85.50
15341;DHT22;7770;52.158;5.372;2022-07-17T15:16:13;27.10;84.40
15341;DHT22;7770;52.158;5.372;2022-07-17T15:18:59;27.20;84.10
15341;DHT22;7770;52.158;5.372;2022-07-17T15:21:45;26.90;84.60
15341;DHT22;7770;52.158;5.372;2022-07-17T15:24:31;26.80;84.40
15341;DHT22;7770;52.158;5.372;2022-07-17T15:27:17;27.00;85.10
15341;DHT22;7770;52.158;5.372;2022-07-17T15:30:04;27.30;84.50
15341;DHT22;7770;52.158;5.372;2022-07-17T15:32:50;27.40;84.80
15341;DHT22;7770;52.158;5.372;2022-07-17T15:35:36;27.10;84.50
15341;DHT22;7770;52.158;5.372;2022-07-17T15:38:22;27.10;85.80
15341;DHT22;7770;52.158;5.372;2022-07-17T15:41:08;27.10;85.40
15341;DHT22;7770;52.158;5.372;2022-07-17T15:43:55;27.00;86.20
15341;DHT22;7770;52.158;5.372;2022-07-17T15:46:41;26.90;84.50
15341;DHT22;7770;52.158;5.372;2022-07-17T15:49:30;26.60;85.40
15341;DHT22;7770;52.158;5.372;2022-07-17T15:52:16;26.50;87.70
15341;DHT22;7770;52.158;5.372;2022-07-17T15:55:02;26.80;86.70
15341;DHT22;7770;52.158;5.372;2022-07-17T15:57:48;26.40;87.30
15341;DHT22;7770;52.158;5.372;2022-07-17T16:00:34;26.60;87.10
15341;DHT22;7770;52.158;5.372;2022-07-17T16:03:21;26.70;86.90
15341;DHT22;7770;52.158;5.372;2022-07-17T16:06:07;26.80;86.20
15341;DHT22;7770;52.158;5.372;2022-07-17T16:08:53;26.90;86.70
15341;DHT22;7770;52.158;5.372;2022-07-17T16:11:39;26.90;86.20
15341;DHT22;7770;52.158;5.372;2022-07-17T16:14:25;26.90;85.30
15341;DHT22;7770;52.158;5.372;2022-07-17T16:17:11;26.60;85.10
15341;DHT22;7770;52.158;5.372;2022-07-17T16:19:57;26.30;86.40
15341;DHT22;7770;52.158;5.372;2022-07-17T16:22:43;26.30;86.20
15341;DHT22;7770;52.158;5.372;2022-07-17T16:25:29;26.20;86.60
15341;DHT22;7770;52.158;5.372;2022-07-17T16:28:15;26.20;86.40
15341;DHT22;7770;52.158;5.372;2022-07-17T16:31:02;26.10;87.00
15341;DHT22;7770;52.158;5.372;2022-07-17T16:33:48;26.00;86.20
15341;DHT22;7770;52.158;5.372;2022-07-17T16:36:34;25.90;86.90
15341;DHT22;7770;52.158;5.372;2022-07-17T16:39:20;25.80;87.50
15341;DHT22;7770;52.158;5.372;2022-07-17T16:42:06;25.80;87.80
15341;DHT22;7770;52.158;5.372;2022-07-17T16:44:52;25.60;87.90
15341;DHT22;7770;52.158;5.372;2022-07-17T16:47:38;25.60;87.70
15341;DHT22;7770;52.158;5.372;2022-07-17T16:50:24;25.60;88.50
15341;DHT22;7770;52.158;5.372;2022-07-17T16:53:12;25.50;88.50
15341;DHT22;7770;52.158;5.372;2022-07-17T16:55:59;25.50;88.00
15341;DHT22;7770;52.158;5.372;2022-07-17T16:58:45;25.60;88.30
15341;DHT22;7770;52.158;5.372;2022-07-17T17:01:31;25.70;88.80
15341;DHT22;7770;52.158;5.372;2022-07-17T17:04:18;25.60;88.30
15341;DHT22;7770;52.158;5.372;2022-07-17T17:07:05;25.70;89.00
15341;DHT22;7770;52.158;5.372;2022-07-17T17:09:51;25.80;89.70
15341;DHT22;7770;52.158;5.372;2022-07-17T17:12:37;25.90;89.20
15341;DHT22;7770;52.158;5.372;2022-07-17T17:15:23;25.90;88.70
15341;DHT22;7770;52.158;5.372;2022-07-17T17:18:09;25.80;89.50
15341;DHT22;7770;52.158;5.372;2022-07-17T17:20:55;25.70;89.60
15341;DHT22;7770;52.158;5.372;2022-07-17T17:23:41;25.70;90.10
15341;DHT22;7770;52.158;5.372;2022-07-17T17:26:27;25.50;89.70
15341;DHT22;7770;52.158;5.372;2022-07-17T17:29:13;25.20;90.30
15341;DHT22;7770;52.158;5.372;2022-07-17T17:31:59;25.20;90.50
15341;DHT22;7770;52.158;5.372;2022-07-17T17:34:45;25.10;90.70
15341;DHT22;7770;52.158;5.372;2022-07-17T17:37:31;25.00;91.00
15341;DHT22;7770;52.158;5.372;2022-07-17T17:40:17;25.10;90.90
15341;DHT22;7770;52.158;5.372;2022-07-17T17:43:03;25.00;90.50
15341;DHT22;7770;52.158;5.372;2022-07-17T17:45:49;25.00;90.80
15341;DHT22;7770;52.158;5.372;2022-07-17T17:48:35;24.90;90.70
15341;DHT22;7770;52.158;5.372;2022-07-17T17:51:21;24.90;90.70